Lake Mahopac, New York
Current Conditions -  °F | °C
As of 5:02 AM on Sunday 21 Dec 2014 (Local Time) from KDXR Reporting Station
Haze Haze  
Wind Chill: 28°   Ceiling: 1600
Heat Index: 28°   Visibility: 5mi
Dew Point: 23°   Wind: 0mph
Humidity: 81%   Direction: NA
Pressure: 30.26"   Gusts: NA
Location:  41.3759°N, 73.7482°W
Report Text: KDXR 211002Z AUTO 00000KT 5SM HZ FEW011 BKN016 OVC023 M02/M05 A3026 RMK AO2 T10221050
Loading
Personal Weather Stations






























Interactive Weather Map New forecast layout! Learn more

10-Day Weather Forecast

Advertisements
Track Severe Weather on mobile